Open Full Screen Window  High Contrast Mode
Wind Gusting 00 knots
03
February 26, 2017 11:19 PM EST
Weather Information
Wind Direction
  210 °
Wind Speed
  03 kt (3 mph)
Wind Gust
  00 kt (0 mph)
Altimeter
30.16 in
Visibility
10 SM
Temperature
01° C
34° F
Dewpoint
-09° C
16° F
Humidity
48%
1hr Rain Fall
00.00 in.
24hr Rain Fall
00.00 in.
Sky Condition
Scattered @ 7,500 ft
VFR

METAR KPOV 270419Z AUTO 21003KT 10SM SCT075 01/M09 A3016 RMK AO2 T00131088

*Background is not an actual portrayal of the airport.